ěÝzenÝ letovÚho provozu ╚eskÚ republiky
Letiste: LKNA Aktualizace: 10.05.2021 04:57:23  UTC
 METAR LKNA 10.05. 05:00 ...
METAR LKNA 100500Z 12010KT CAVOK 12/M00 Q1012 NOSIG RMK BLU BLU=
 TAF LKNA 09.05. 23:00 ...
TAF LKNA 092300Z 1000/1100 13016G26KT CAVOK      BECMG 1003/1005 13012G24KT=